MSC Mandraki — SZUH — position and weather

sailwx.info

Track history (hours):
 
Tides and Currents Weather Stations Pressure Air Temp Water Temp Dewpoint Dewpoint Depression Visibility Wind Speed Wind Dir Waves Ship Positions

MSC Mandraki

Last reported at 2017-Feb-20 10:32 UTC. Time now 2017-Feb-20 11:20 UTC.
Position N 53°35' E 008°32'.

Length 294 m; draft 10.2 m.

Type: Ship. MMSI: 240265000.

Date/timePositionNaut miles runAvg speedWind from/ knotsBaromVisibWave heightAir tempDewpointWater temp
2017-Feb-20 10:32N 53°35' E 008°32'0 0.0
2017-Feb-20 09:32N 53°35' E 008°32'0 0.0
2017-Feb-20 08:32N 53°35' E 008°32'0 0.0
2017-Feb-20 07:32N 53°35' E 008°32'0 0.0
2017-Feb-20 06:32N 53°35' E 008°32'0 0.0
2017-Feb-20 05:32N 53°35' E 008°32'0 0.0
2017-Feb-20 04:29N 53°35' E 008°32'0 0.0
2017-Feb-20 03:32N 53°35' E 008°32'0 0.0
2017-Feb-20 02:32N 53°35' E 008°32'0 0.0
2017-Feb-20 01:32N 53°35' E 008°32'0 0.0
2017-Feb-20 00:32N 53°35' E 008°32'0 0.0
2017-Feb-19 23:32N 53°35' E 008°32'0 0.0
2017-Feb-19 22:32N 53°35' E 008°32'0 0.0
2017-Feb-19 21:32N 53°35' E 008°32'0 0.0
2017-Feb-19 20:32N 53°35' E 008°32'0 0.0
2017-Feb-19 19:29N 53°35' E 008°32'0 0.0
2017-Feb-19 18:32N 53°35' E 008°32'2 2.3
2017-Feb-19 17:33N 53°37' E 008°30'1616.2
2017-Feb-19 16:33N 53°47' E 008°09'1414.3
2017-Feb-19 15:33N 53°53' E 007°47'2 2.2
2017-Feb-19 14:28N 53°55' E 007°48'0 0.0
2017-Feb-19 13:19N 53°55' E 007°48'0 0.0
2017-Feb-19 12:28N 53°55' E 007°48'0 0.0
2017-Feb-19 11:31N 53°55' E 007°48'0 0.0
2017-Feb-19 10:31N 53°55' E 007°48'0 0.0
2017-Feb-19 09:25N 53°55' E 007°48'0 0.0
2017-Feb-19 07:22N 53°55' E 007°48'0 0.0
2017-Feb-19 06:25N 53°55' E 007°48'0 0.0
2017-Feb-19 05:25N 53°55' E 007°48'0 0.0
2017-Feb-19 04:22N 53°55' E 007°48'0 0.0
2017-Feb-19 03:16N 53°55' E 007°48'0 0.0
2017-Feb-19 02:25N 53°55' E 007°48'0 0.1
2017-Feb-19 01:31N 53°55' E 007°48'0 0.0
2017-Feb-19 00:19N 53°55' E 007°48'1 1.0
2017-Feb-18 23:32N 53°55' E 007°46'6 6.0
2017-Feb-18 22:33N 53°54' E 007°37'1515.3
2017-Feb-18 21:33N 53°52' E 007°11'1514.9
2017-Feb-18 20:33N 53°49' E 006°46'3014.8
2017-Feb-18 18:33N 53°41' E 005°58'1614.9
2017-Feb-18 17:30N 53°36' E 005°33'1414.7
2017-Feb-18 16:33N 53°32' E 005°10'4314.4
2017-Feb-18 13:32N 53°00' E 004°21'1515.1
2017-Feb-18 12:33N 52°47' E 004°10'1515.4
2017-Feb-18 11:33N 52°35' E 003°53'1514.8
2017-Feb-18 10:33N 52°24' E 003°37'1615.8
2017-Feb-18 09:33N 52°09' E 003°29'1716.3
2017-Feb-18 08:31N 51°53' E 003°22'1714.1
2017-Feb-18 07:20N 51°38' E 003°10'1316.8
2017-Feb-18 06:33N 51°27' E 002°60'1414.1
2017-Feb-18 05:33N 51°25' E 003°22'1211.6
2017-Feb-18 04:33N 51°26' E 003°40'1010.0
2017-Feb-18 03:33N 51°22' E 003°55'8 8.0
2017-Feb-18 02:33N 51°22' E 004°07'6 6.3
2017-Feb-18 01:33N 51°20' E 004°16'2 1.9
2017-Feb-18 00:31N 51°18' E 004°16'0 0.0
2017-Feb-17 23:31N 51°18' E 004°16'0 0.0
2017-Feb-17 22:31N 51°18' E 004°16'0 0.0
2017-Feb-17 21:31N 51°18' E 004°16'0 0.0
2017-Feb-17 19:25N 51°18' E 004°16'0 0.0
2017-Feb-17 18:25N 51°18' E 004°16'0 0.0
2017-Feb-17 17:31N 51°18' E 004°16'0 0.0
2017-Feb-17 16:19N 51°18' E 004°16'0 0.0
2017-Feb-17 15:31N 51°18' E 004°16'0 0.0
2017-Feb-17 14:25N 51°18' E 004°16'0 0.0
2017-Feb-17 13:31N 51°18' E 004°16'0 0.0
2017-Feb-17 12:19N 51°18' E 004°16'0 0.0
2017-Feb-17 11:31N 51°18' E 004°16'0 0.0
2017-Feb-17 10:31N 51°18' E 004°16'0 0.0
2017-Feb-17 09:19N 51°18' E 004°16'0 0.0
2017-Feb-17 08:16N 51°18' E 004°16'0 0.0
2017-Feb-17 07:16N 51°18' E 004°16'0 0.0
2017-Feb-17 06:25N 51°18' E 004°16'0 0.0
2017-Feb-17 05:07N 51°18' E 004°16'0 0.0
2017-Feb-17 04:32N 51°18' E 004°16'3 2.7
2017-Feb-17 03:33N 51°20' E 004°16'9 9.2
2017-Feb-17 02:33N 51°23' E 004°02'10 9.6
2017-Feb-17 01:33N 51°21' E 003°47'1111.4
2017-Feb-17 00:33N 51°25' E 003°30'1313.4
2017-Feb-16 23:34N 51°24' E 003°09'1312.7
2017-Feb-16 22:33N 51°21' E 002°49'8 7.5
2017-Feb-16 21:34N 51°23' E 002°37'2 2.3
2017-Feb-16 20:32N 51°25' E 002°36'0 0.0
2017-Feb-16 19:26N 51°25' E 002°36'0 0.0
2017-Feb-16 18:32N 51°25' E 002°36'0 0.0
2017-Feb-16 17:32N 51°25' E 002°36'0 0.0
2017-Feb-16 16:32N 51°25' E 002°36'0 0.0
2017-Feb-16 15:32N 51°25' E 002°36'0 0.1
2017-Feb-16 14:33N 51°25' E 002°36'6 6.0
2017-Feb-16 13:33N 51°22' E 002°28'1515.5
2017-Feb-16 12:33N 51°13' E 002°08'1514.9
2017-Feb-16 11:33N 51°06' E 001°47'1414.0
2017-Feb-16 10:33N 50°56' E 001°32'1514.0
2017-Feb-16 09:31N 50°43' E 001°21'4314.6
2017-Feb-16 06:33N 50°22' E 000°22'1514.6
2017-Feb-16 05:33N 50°17' E 000°00'1913.5
2017-Feb-16 04:09N 50°03' W 000°19'915.5
2017-Feb-16 03:33N 49°54' W 000°22'1515.4
2017-Feb-16 02:33N 49°39' W 000°21'1414.1
2017-Feb-16 01:34N 49°31' W 000°03'8 7.8
2017-Feb-16 00:33N 49°28' E 000°08'0 0.0
2017-Feb-15 23:33N 49°28' E 000°08'0 0.0
2017-Feb-15 22:33N 49°28' E 000°08'0 0.0
2017-Feb-15 21:33N 49°28' E 000°08'0 0.0
2017-Feb-15 20:33N 49°28' E 000°08'0 0.0
2017-Feb-15 19:33N 49°28' E 000°08'0 0.0
2017-Feb-15 18:33N 49°28' E 000°08'0 0.0
2017-Feb-15 17:33N 49°28' E 000°08'0 0.0
2017-Feb-15 16:33N 49°28' E 000°08'0 0.0
2017-Feb-15 15:33N 49°28' E 000°08'0 0.0
2017-Feb-15 14:33N 49°28' E 000°08'0 0.0
2017-Feb-15 13:33N 49°28' E 000°08'0 0.0
2017-Feb-15 12:33N 49°28' E 000°08'0 0.0
2017-Feb-15 11:33N 49°28' E 000°08'0 0.0
2017-Feb-15 10:33N 49°28' E 000°08'0 0.0
2017-Feb-15 09:33N 49°28' E 000°08'0 0.0
2017-Feb-15 08:33N 49°28' E 000°08'0 0.0
2017-Feb-15 07:33N 49°28' E 000°08'0 0.0
2017-Feb-15 06:33N 49°28' E 000°08'0 0.0
2017-Feb-15 05:33N 49°28' E 000°08'0 0.0
2017-Feb-15 04:33N 49°28' E 000°08'0 0.0
2017-Feb-15 03:33N 49°28' E 000°08'0 0.0
2017-Feb-15 02:33N 49°28' E 000°08'0 0.0
2017-Feb-15 01:33N 49°28' E 000°08'0 0.0
2017-Feb-15 00:33N 49°28' E 000°08'0 0.0
2017-Feb-14 23:33N 49°28' E 000°08'0 0.0
2017-Feb-14 22:33N 49°28' E 000°08'0 0.0
2017-Feb-14 21:33N 49°28' E 000°08'0 0.0
2017-Feb-14 20:33N 49°28' E 000°08'0 0.0
2017-Feb-14 19:33N 49°28' E 000°08'1 1.2
2017-Feb-14 18:34N 49°28' E 000°07'1212.1
2017-Feb-14 17:33N 49°32' W 000°11'1413.5
2017-Feb-14 16:33N 49°43' W 000°24'1615.7
2017-Feb-14 15:33N 49°58' W 000°20'1616.2
2017-Feb-14 14:33N 50°14' W 000°12'3114.1
2017-Feb-14 12:20N 50°34' E 000°27'1114.0
2017-Feb-14 11:33N 50°38' E 000°43'1514.7
2017-Feb-14 10:34N 50°49' E 000°58'1716.8
2017-Feb-14 09:33N 50°60' E 001°18'1918.5
2017-Feb-14 08:34N 51°11' E 001°41'1716.7
2017-Feb-14 07:34N 51°25' E 001°56'1615.8
2017-Feb-14 06:33N 51°37' E 002°13'7615.2
2017-Feb-14 01:32N 52°37' E 003°30'2417.2
2017-Feb-14 00:08N 52°56' E 003°54'1017.2
2017-Feb-13 23:33N 53°02' E 004°07'1717.0
2017-Feb-13 22:34N 53°14' E 004°27'1716.5
2017-Feb-13 21:33N 53°30' E 004°36'1615.9
2017-Feb-13 20:33N 53°45' E 004°44'22917.4
2017-Feb-13 07:25N 57°14' E 007°28'4419.5
2017-Feb-13 05:09N 57°34' E 008°42'1220.0
2017-Feb-13 04:33N 57°38' E 009°02'1919.0
2017-Feb-13 03:33N 57°47' E 009°34'1918.7
2017-Feb-13 02:33N 57°53' E 010°07'1818.5
2017-Feb-13 01:33N 57°51' E 010°41'1919.3
2017-Feb-13 00:33N 57°38' E 011°07'1919.2
2017-Feb-12 23:34N 57°23' E 011°29'2019.7
2017-Feb-12 22:34N 57°04' E 011°42'2517.1
2017-Feb-12 21:06N 56°39' E 011°46'1618.7
2017-Feb-12 20:16N 56°27' E 011°28'1416.2
2017-Feb-12 19:26N 56°20' E 011°07'1315.1
2017-Feb-12 18:33N 56°07' E 011°06'1717.4
2017-Feb-12 17:33N 55°52' E 010°49'2119.1
2017-Feb-12 16:26N 55°31' E 010°53'1517.6
2017-Feb-12 15:33N 55°17' E 011°04'1717.0
2017-Feb-12 14:34N 55°00' E 010°59'1817.6
2017-Feb-12 13:33N 54°44' E 010°47'1211.9
2017-Feb-12 12:33N 54°36' E 011°02'1817.6
2017-Feb-12 11:33N 54°30' E 011°31'1918.0
2017-Feb-12 10:29N 54°26' E 012°03'4915.8
2017-Feb-12 07:25N 54°53' E 013°13'1719.2
2017-Feb-12 06:33N 54°59' E 013°40'1918.8
2017-Feb-12 05:33N 55°08' E 014°08'1918.9
2017-Feb-12 04:33N 55°23' E 014°29'1918.6
2017-Feb-12 03:33N 55°33' E 014°56'  
Track history (hours):
 
Tides and Currents Weather Stations Pressure Air Temp Water Temp Dewpoint Dewpoint Depression Visibility Wind Speed Wind Dir Waves Ship Positions

MSC Mandraki

Last reported at 2017-Feb-20 10:32 UTC. Time now 2017-Feb-20 11:20 UTC.
Position N 53°35' E 008°32'.

Length 294 m; draft 10.2 m.

Type: Ship. MMSI: 240265000.

Date/timePositionNaut miles runAvg speedWind from/ knotsBaromVisibWave heightAir tempDewpointWater temp
2017-Feb-20 10:32N 53°35' E 008°32'0 0.0
2017-Feb-20 09:32N 53°35' E 008°32'0 0.0
2017-Feb-20 08:32N 53°35' E 008°32'0 0.0
2017-Feb-20 07:32N 53°35' E 008°32'0 0.0
2017-Feb-20 06:32N 53°35' E 008°32'0 0.0
2017-Feb-20 05:32N 53°35' E 008°32'0 0.0
2017-Feb-20 04:29N 53°35' E 008°32'0 0.0
2017-Feb-20 03:32N 53°35' E 008°32'0 0.0
2017-Feb-20 02:32N 53°35' E 008°32'0 0.0
2017-Feb-20 01:32N 53°35' E 008°32'0 0.0
2017-Feb-20 00:32N 53°35' E 008°32'0 0.0
2017-Feb-19 23:32N 53°35' E 008°32'0 0.0
2017-Feb-19 22:32N 53°35' E 008°32'0 0.0
2017-Feb-19 21:32N 53°35' E 008°32'0 0.0
2017-Feb-19 20:32N 53°35' E 008°32'0 0.0
2017-Feb-19 19:29N 53°35' E 008°32'0 0.0
2017-Feb-19 18:32N 53°35' E 008°32'2 2.3
2017-Feb-19 17:33N 53°37' E 008°30'1616.2
2017-Feb-19 16:33N 53°47' E 008°09'1414.3
2017-Feb-19 15:33N 53°53' E 007°47'2 2.2
2017-Feb-19 14:28N 53°55' E 007°48'0 0.0
2017-Feb-19 13:19N 53°55' E 007°48'0 0.0
2017-Feb-19 12:28N 53°55' E 007°48'0 0.0
2017-Feb-19 11:31N 53°55' E 007°48'0 0.0
2017-Feb-19 10:31N 53°55' E 007°48'0 0.0
2017-Feb-19 09:25N 53°55' E 007°48'0 0.0
2017-Feb-19 07:22N 53°55' E 007°48'0 0.0
2017-Feb-19 06:25N 53°55' E 007°48'0 0.0
2017-Feb-19 05:25N 53°55' E 007°48'0 0.0
2017-Feb-19 04:22N 53°55' E 007°48'0 0.0
2017-Feb-19 03:16N 53°55' E 007°48'0 0.0
2017-Feb-19 02:25N 53°55' E 007°48'0 0.1
2017-Feb-19 01:31N 53°55' E 007°48'0 0.0
2017-Feb-19 00:19N 53°55' E 007°48'1 1.0
2017-Feb-18 23:32N 53°55' E 007°46'6 6.0
2017-Feb-18 22:33N 53°54' E 007°37'1515.3
2017-Feb-18 21:33N 53°52' E 007°11'1514.9
2017-Feb-18 20:33N 53°49' E 006°46'3014.8
2017-Feb-18 18:33N 53°41' E 005°58'1614.9
2017-Feb-18 17:30N 53°36' E 005°33'1414.7
2017-Feb-18 16:33N 53°32' E 005°10'4314.4
2017-Feb-18 13:32N 53°00' E 004°21'1515.1
2017-Feb-18 12:33N 52°47' E 004°10'1515.4
2017-Feb-18 11:33N 52°35' E 003°53'1514.8
2017-Feb-18 10:33N 52°24' E 003°37'1615.8
2017-Feb-18 09:33N 52°09' E 003°29'1716.3
2017-Feb-18 08:31N 51°53' E 003°22'1714.1
2017-Feb-18 07:20N 51°38' E 003°10'1316.8
2017-Feb-18 06:33N 51°27' E 002°60'1414.1
2017-Feb-18 05:33N 51°25' E 003°22'1211.6
2017-Feb-18 04:33N 51°26' E 003°40'1010.0
2017-Feb-18 03:33N 51°22' E 003°55'8 8.0
2017-Feb-18 02:33N 51°22' E 004°07'6 6.3
2017-Feb-18 01:33N 51°20' E 004°16'2 1.9
2017-Feb-18 00:31N 51°18' E 004°16'0 0.0
2017-Feb-17 23:31N 51°18' E 004°16'0 0.0
2017-Feb-17 22:31N 51°18' E 004°16'0 0.0
2017-Feb-17 21:31N 51°18' E 004°16'0 0.0
2017-Feb-17 19:25N 51°18' E 004°16'0 0.0
2017-Feb-17 18:25N 51°18' E 004°16'0 0.0
2017-Feb-17 17:31N 51°18' E 004°16'0 0.0
2017-Feb-17 16:19N 51°18' E 004°16'0 0.0
2017-Feb-17 15:31N 51°18' E 004°16'0 0.0
2017-Feb-17 14:25N 51°18' E 004°16'0 0.0
2017-Feb-17 13:31N 51°18' E 004°16'0 0.0
2017-Feb-17 12:19N 51°18' E 004°16'0 0.0
2017-Feb-17 11:31N 51°18' E 004°16'0 0.0
2017-Feb-17 10:31N 51°18' E 004°16'0 0.0
2017-Feb-17 09:19N 51°18' E 004°16'0 0.0
2017-Feb-17 08:16N 51°18' E 004°16'0 0.0
2017-Feb-17 07:16N 51°18' E 004°16'0 0.0
2017-Feb-17 06:25N 51°18' E 004°16'0 0.0
2017-Feb-17 05:07N 51°18' E 004°16'0 0.0
2017-Feb-17 04:32N 51°18' E 004°16'3 2.7
2017-Feb-17 03:33N 51°20' E 004°16'9 9.2
2017-Feb-17 02:33N 51°23' E 004°02'10 9.6
2017-Feb-17 01:33N 51°21' E 003°47'1111.4
2017-Feb-17 00:33N 51°25' E 003°30'1313.4
2017-Feb-16 23:34N 51°24' E 003°09'1312.7
2017-Feb-16 22:33N 51°21' E 002°49'8 7.5
2017-Feb-16 21:34N 51°23' E 002°37'2 2.3
2017-Feb-16 20:32N 51°25' E 002°36'0 0.0
2017-Feb-16 19:26N 51°25' E 002°36'0 0.0
2017-Feb-16 18:32N 51°25' E 002°36'0 0.0
2017-Feb-16 17:32N 51°25' E 002°36'0 0.0
2017-Feb-16 16:32N 51°25' E 002°36'0 0.0
2017-Feb-16 15:32N 51°25' E 002°36'0 0.1
2017-Feb-16 14:33N 51°25' E 002°36'6 6.0
2017-Feb-16 13:33N 51°22' E 002°28'1515.5
2017-Feb-16 12:33N 51°13' E 002°08'1514.9
2017-Feb-16 11:33N 51°06' E 001°47'1414.0
2017-Feb-16 10:33N 50°56' E 001°32'1514.0
2017-Feb-16 09:31N 50°43' E 001°21'4314.6
2017-Feb-16 06:33N 50°22' E 000°22'1514.6
2017-Feb-16 05:33N 50°17' E 000°00'1913.5
2017-Feb-16 04:09N 50°03' W 000°19'915.5
2017-Feb-16 03:33N 49°54' W 000°22'1515.4
2017-Feb-16 02:33N 49°39' W 000°21'1414.1
2017-Feb-16 01:34N 49°31' W 000°03'8 7.8
2017-Feb-16 00:33N 49°28' E 000°08'0 0.0
2017-Feb-15 23:33N 49°28' E 000°08'0 0.0
2017-Feb-15 22:33N 49°28' E 000°08'0 0.0
2017-Feb-15 21:33N 49°28' E 000°08'0 0.0
2017-Feb-15 20:33N 49°28' E 000°08'0 0.0
2017-Feb-15 19:33N 49°28' E 000°08'0 0.0
2017-Feb-15 18:33N 49°28' E 000°08'0 0.0
2017-Feb-15 17:33N 49°28' E 000°08'0 0.0
2017-Feb-15 16:33N 49°28' E 000°08'0 0.0
2017-Feb-15 15:33N 49°28' E 000°08'0 0.0
2017-Feb-15 14:33N 49°28' E 000°08'0 0.0
2017-Feb-15 13:33N 49°28' E 000°08'0 0.0
2017-Feb-15 12:33N 49°28' E 000°08'0 0.0
2017-Feb-15 11:33N 49°28' E 000°08'0 0.0
2017-Feb-15 10:33N 49°28' E 000°08'0 0.0
2017-Feb-15 09:33N 49°28' E 000°08'0 0.0
2017-Feb-15 08:33N 49°28' E 000°08'0 0.0
2017-Feb-15 07:33N 49°28' E 000°08'0 0.0
2017-Feb-15 06:33N 49°28' E 000°08'0 0.0
2017-Feb-15 05:33N 49°28' E 000°08'0 0.0
2017-Feb-15 04:33N 49°28' E 000°08'0 0.0
2017-Feb-15 03:33N 49°28' E 000°08'0 0.0
2017-Feb-15 02:33N 49°28' E 000°08'0 0.0
2017-Feb-15 01:33N 49°28' E 000°08'0 0.0
2017-Feb-15 00:33N 49°28' E 000°08'0 0.0
2017-Feb-14 23:33N 49°28' E 000°08'0 0.0
2017-Feb-14 22:33N 49°28' E 000°08'0 0.0
2017-Feb-14 21:33N 49°28' E 000°08'0 0.0
2017-Feb-14 20:33N 49°28' E 000°08'0 0.0
2017-Feb-14 19:33N 49°28' E 000°08'1 1.2
2017-Feb-14 18:34N 49°28' E 000°07'1212.1
2017-Feb-14 17:33N 49°32' W 000°11'1413.5
2017-Feb-14 16:33N 49°43' W 000°24'1615.7
2017-Feb-14 15:33N 49°58' W 000°20'1616.2
2017-Feb-14 14:33N 50°14' W 000°12'3114.1
2017-Feb-14 12:20N 50°34' E 000°27'1114.0
2017-Feb-14 11:33N 50°38' E 000°43'1514.7
2017-Feb-14 10:34N 50°49' E 000°58'1716.8
2017-Feb-14 09:33N 50°60' E 001°18'1918.5
2017-Feb-14 08:34N 51°11' E 001°41'1716.7
2017-Feb-14 07:34N 51°25' E 001°56'1615.8
2017-Feb-14 06:33N 51°37' E 002°13'7615.2
2017-Feb-14 01:32N 52°37' E 003°30'2417.2
2017-Feb-14 00:08N 52°56' E 003°54'1017.2
2017-Feb-13 23:33N 53°02' E 004°07'1717.0
2017-Feb-13 22:34N 53°14' E 004°27'1716.5
2017-Feb-13 21:33N 53°30' E 004°36'1615.9
2017-Feb-13 20:33N 53°45' E 004°44'22917.4
2017-Feb-13 07:25N 57°14' E 007°28'4419.5
2017-Feb-13 05:09N 57°34' E 008°42'1220.0
2017-Feb-13 04:33N 57°38' E 009°02'1919.0
2017-Feb-13 03:33N 57°47' E 009°34'1918.7
2017-Feb-13 02:33N 57°53' E 010°07'1818.5
2017-Feb-13 01:33N 57°51' E 010°41'1919.3
2017-Feb-13 00:33N 57°38' E 011°07'1919.2
2017-Feb-12 23:34N 57°23' E 011°29'2019.7
2017-Feb-12 22:34N 57°04' E 011°42'2517.1
2017-Feb-12 21:06N 56°39' E 011°46'1618.7
2017-Feb-12 20:16N 56°27' E 011°28'1416.2
2017-Feb-12 19:26N 56°20' E 011°07'1315.1
2017-Feb-12 18:33N 56°07' E 011°06'1717.4
2017-Feb-12 17:33N 55°52' E 010°49'2119.1
2017-Feb-12 16:26N 55°31' E 010°53'1517.6
2017-Feb-12 15:33N 55°17' E 011°04'1717.0
2017-Feb-12 14:34N 55°00' E 010°59'1817.6
2017-Feb-12 13:33N 54°44' E 010°47'1211.9
2017-Feb-12 12:33N 54°36' E 011°02'1817.6
2017-Feb-12 11:33N 54°30' E 011°31'1918.0
2017-Feb-12 10:29N 54°26' E 012°03'4915.8
2017-Feb-12 07:25N 54°53' E 013°13'1719.2
2017-Feb-12 06:33N 54°59' E 013°40'1918.8
2017-Feb-12 05:33N 55°08' E 014°08'1918.9
2017-Feb-12 04:33N 55°23' E 014°29'1918.6
2017-Feb-12 03:33N 55°33' E 014°56'  

Dump ship's entire track history